Avery, California
Current Conditions -  °F | °C
As of 3:15 AM on Saturday 01 Nov 2014 (Local Time) from KO22 Reporting Station
Overcast Overcast  
Wind Chill: 44°   Ceiling: 300
Heat Index: 46°   Visibility: 3mi
Dew Point: 46°   Wind: 5mph
Humidity: 100%   Direction: 200°SSW
Pressure: 29.75"   Gusts: NA
Location:  38.2°N, 120.37°W
Report Text: KO22 011015Z AUTO 20004KT 3SM BKN003 OVC013 08/08 A2975 RMK AO1 P0005
Loading
Personal Weather Stations






























Interactive Weather Map
Tropical Storm Tracking
New forecast layout! Learn more

10-Day Weather Forecast

Advertisements
Track Severe Weather on mobile